Chesapeake, VA

12:28 PM EDT on July 28, 2017 (GMT -0400)
City Hall | | Change Station

Elev 20 ft 36.72 °N, 76.25 °W | Updated 2 minutes ago

Overcast
Overcast
81.1 °F
Feels Like 88 °F
N
0.0
Wind Variable Wind from SSE
Gusts 0.0 mph

Today
High -- | Low -- °F
--% Chance of Precip.
Yesterday
High -- | Low -- °F
Precip. -- in
Pressure 29.84 in
Visibility 7.0 miles
Clouds Scattered Clouds 1100 ft
Scattered Clouds 6500 ft
Overcast 12000 ft
Heat Index 88 °F
Dew Point 77 °F
Humidity 88%
Rainfall 0.58 in
Snow Depth Not available.
6:07 AM 8:14 PM
Waxing Crescent, 31% visible
METAR KCPK 281615Z AUTO 19009KT 7SM VCTS SCT011 SCT065 OVC120 26/23 A2984 RMK AO2 LTG DSNT S T02570228
Pressure 29.84 in
Visibility 7.0 miles
Clouds Scattered Clouds 1100 ft
Scattered Clouds 6500 ft
Overcast 12000 ft
Heat Index 88 °F
Dew Point 77 °F
Humidity 88%
Rainfall 0.58 in
Snow Depth Not available.
6:07 AM 8:14 PM
Waxing Crescent, 31% visible
METAR KCPK 281615Z AUTO 19009KT 7SM VCTS SCT011 SCT065 OVC120 26/23 A2984 RMK AO2 LTG DSNT S T02570228

Get Severe Weather Alerts

Thanks for signing up!

Be on the lookout for a verification email in your inbox.

You'll start receiving the daily forecast at 6 AM.

×

10-Day Weather Forecast

Almanac

Astronomy

Jul. 28, 2017 Rise Set
Actual Time
Civil Twilight
Nautical Twilight
Astronomical Twilight
Moon
Length of Visible Light
Length of Day
Tomorrow will be .
, % of the Moon is Illuminated

Today's Extremes

State Highs State Lows

Community

WunderPhotos

Category 6

Welcome to Category 6. This is the collective home for Weather Underground's featured writeups by Dr. Jeff Masters (right), Bob Henson (left), Chris Burt, and other regular contributors.

Nearby

Air Quality

  Air Quality AQ Index Pollutant
Not available.

Snow Depth

Station Depth Elevation

Earthquake Activity

City Distance Mag. Time & Date
Minimum magnitude displayed is 2.5.

Coastal Water Temperatures

Place Temperature

Stations

Nearby Weather Stations

Station Location Temp. Windchill Dew Point Humidity Wind Precip. Elev Updated Type
                   

Watches & Warnings

There are currently no watches in effect.